Flight Track Log - Related Links

Times and Time Zones

All times are in EDT time to prevent confusion due to time zone crossing. See the AAY806 flight status page for this flight to view local times or setup timezone preferences in your user account.

Time Position Orientation Groundspeed Altitude Reporting Facility
EDT Latitude Longitude Course Direction KTS MPH feet Rate Location/Type
Fri 04:21:36 PM 27.9333 -82.7000 331° Northwest 194 223 700  Level Tampa TRACON
Fri 04:22:25 PM 27.9667 -82.6833 24° Northeast 209 241 2,200 1,722 Climbing Tampa TRACON
Fri 04:23:31 PM 28.0333 -82.7000 348° North 243 280 4,000 1,800 Climbing Tampa TRACON
Fri 04:24:25 PM 28.1000 -82.7167 348° North 267 307 5,800 1,316 Climbing Tampa TRACON
Fri 04:25:25 PM 28.1667 -82.7333 348° North 269 310 6,500 1,628 Climbing Tampa TRACON
Fri 04:26:00 PM 28.6308 -83.1329 331° Northwest  Level FlightAware Approximate
Fri 04:27:44 PM 28.3419 -82.7864 345° North 292 336 11,200  Level Jacksonville Center
Fri 04:28:44 PM 28.4358 -82.8006 352° North 313 360 13,000 1,750 Climbing Jacksonville Center
Fri 04:29:44 PM 28.5339 -82.8144 353° North 335 386 14,700 1,800 Climbing Jacksonville Center
Fri 04:30:44 PM 28.6425 -82.8192 358° North 365 420 16,600 1,800 Climbing Jacksonville Center
Fri 04:31:44 PM 28.7383 -82.8736 334° Northwest 372 428 18,300 1,750 Climbing Jacksonville Center
Fri 04:32:44 PM 28.8261 -82.9519 322° Northwest 377 434 20,100 1,550 Climbing Jacksonville Center
Fri 04:33:44 PM 28.9242 -83.0206 329° Northwest 401 461 21,400 1,400 Climbing Jacksonville Center
Fri 04:34:44 PM 29.0222 -83.0992 325° Northwest 420 483 22,900 1,400 Climbing Jacksonville Center
Fri 04:35:44 PM 29.1181 -83.1872 321° Northwest 432 497 24,200 1,100 Climbing Jacksonville Center
Fri 04:36:44 PM 29.2181 -83.2661 325° Northwest 437 503 25,100 900 Climbing Jacksonville Center
Fri 04:37:44 PM 29.3200 -83.3522 324° Northwest 443 510 26,000 450 Climbing Jacksonville Center
Fri 04:38:44 PM 29.4261 -83.4267 329° Northwest 448 516 26,000 600 Level Jacksonville Center
Fri 04:39:44 PM 29.5281 -83.5156 323° Northwest 453 521 27,200 1,250 Climbing Jacksonville Center
Fri 04:40:44 PM 29.6300 -83.6022 324° Northwest 453 521 28,500 1,150 Climbing Jacksonville Center
Fri 04:41:44 PM 29.7339 -83.6867 325° Northwest 459 528 29,500 700 Climbing Jacksonville Center
Fri 04:42:44 PM 29.8333 -83.7736 323° Northwest 454 522 29,900 200 Climbing Jacksonville Center
Fri 04:43:44 PM 29.9372 -83.8536 326° Northwest 454 522 29,900  Level Jacksonville Center
Fri 04:44:44 PM 30.0450 -83.9483 323° Northwest 449 517 29,900  Level Jacksonville Center
Fri 04:45:44 PM 30.1486 -84.0289 326° Northwest 449 517 29,900 50 Level Jacksonville Center
Fri 04:46:44 PM 30.2481 -84.1189 322° Northwest 449 517 30,000  Climbing Jacksonville Center
Fri 04:47:44 PM 30.3497 -84.1997 326° Northwest 455 524 29,900 -50 Descending Jacksonville Center
Fri 04:48:44 PM 30.4489 -84.2878 323° Northwest 450 518 29,900  Level Jacksonville Center
Fri 04:49:44 PM 30.5503 -84.3689 325° Northwest 450 518 29,900 50 Level Jacksonville Center
Fri 04:50:44 PM 30.6367 -84.4717 314° West 445 512 30,000  Climbing Jacksonville Center
Fri 04:51:44 PM 30.7211 -84.5625 317° Northwest 445 512 29,900  Descending Jacksonville Center
Fri 04:52:44 PM 30.8156 -84.6753 314° West 446 513 30,000 50 Climbing Jacksonville Center
Fri 04:53:44 PM 30.9061 -84.7739 317° Northwest 439 505 30,000  Level Jacksonville Center
Fri 04:54:44 PM 30.9861 -84.8675 315° West 439 505 30,000  Level Jacksonville Center
Fri 04:55:44 PM 31.0803 -84.9786 315° West 439 505 30,000  Level Jacksonville Center
Fri 04:58:13 PM 31.2903 -85.2222 315° West 435 501 30,000  Level Atlanta Center
Fri 04:59:13 PM 31.3747 -85.3256 314° West 435 501 30,000  Level Atlanta Center
Fri 05:00:13 PM 31.4614 -85.4217 317° Northwest 435 501 30,000  Level Atlanta Center
Fri 05:01:13 PM 31.5478 -85.5253 314° West 435 501 30,000  Level Atlanta Center
Fri 05:02:13 PM 31.6364 -85.6244 316° Northwest 435 501 30,000  Level Atlanta Center
Fri 05:03:13 PM 31.7206 -85.7258 314° West 435 501 30,000  Level Atlanta Center
Fri 05:04:13 PM 31.8192 -85.8403 315° West 435 501 30,000  Level Atlanta Center
Fri 05:05:13 PM 31.9072 -85.9447 315° West 440 506 30,000  Level Atlanta Center
Fri 05:06:13 PM 31.9892 -86.0419 315° West 434 499 30,000  Level Atlanta Center
Fri 05:07:13 PM 32.0628 -86.1367 313° West 434 499 30,000  Level Atlanta Center
Fri 05:08:13 PM 32.1692 -86.2519 317° Northwest 434 499 30,000  Level Atlanta Center
Fri 05:09:13 PM 32.2425 -86.3522 311° West 435 501 30,000  Level Atlanta Center
Fri 05:10:13 PM 32.3386 -86.4653 315° West 444 511 30,000  Level Atlanta Center
Fri 05:11:13 PM 32.4200 -86.5658 314° West 444 511 30,000  Level Atlanta Center
Fri 05:12:13 PM 32.4872 -86.6492 314° West 439 505 30,000  Level Atlanta Center
Fri 05:13:13 PM 32.5614 -86.7917 302° West 427 491 30,000  Level Atlanta Center
Fri 05:14:13 PM 32.6678 -86.8814 325° Northwest 432 497 30,000  Level Atlanta Center
Fri 05:15:13 PM 32.7508 -86.9903 312° West 437 503 30,000  Level Atlanta Center
Fri 05:16:13 PM 32.8358 -87.0944 314° West 437 503 30,000  Level Atlanta Center
Fri 05:17:13 PM 32.9144 -87.2061 310° West 437 503 30,000 446 Level Atlanta Center
Fri 05:19:08 PM 33.0772 -87.4069 314° West 441 507 31,300 686 Climbing Memphis Center
Fri 05:20:08 PM 33.1633 -87.5133 314° West 441 507 32,000 350 Climbing Memphis Center
Fri 05:21:08 PM 33.2450 -87.6250 311° West 441 507 32,000  Level Memphis Center
Fri 05:22:08 PM 33.3308 -87.7292 315° West 441 507 32,000  Level Memphis Center
Fri 05:23:08 PM 33.4103 -87.8364 312° West 436 502 32,000  Level Memphis Center
Fri 05:24:08 PM 33.4939 -87.9458 313° West 436 502 32,000  Level Memphis Center
Fri 05:25:08 PM 33.5775 -88.0583 312° West 442 509 32,000  Level Memphis Center
Fri 05:26:08 PM 33.6628 -88.1633 314° West 442 509 32,000  Level Memphis Center
Fri 05:27:08 PM 33.7442 -88.2764 311° West 442 509 32,000  Level Memphis Center
Fri 05:28:08 PM 33.8292 -88.3842 314° West 442 509 32,000  Level Memphis Center
Fri 05:29:08 PM 33.9125 -88.4950 312° West 442 509 32,000  Level Memphis Center
Fri 05:30:08 PM 33.9975 -88.6058 313° West 447 514 32,000  Level Memphis Center
Fri 05:31:08 PM 34.0783 -88.7194 311° West 447 514 32,000  Level Memphis Center
Fri 05:32:08 PM 34.1633 -88.8283 313° West 447 514 32,000  Level Memphis Center
Fri 05:33:08 PM 34.2333 -88.9225 312° West 447 514 32,000  Level Memphis Center
Fri 05:34:08 PM 34.3200 -89.0342 313° West 442 509 32,000  Level Memphis Center
Fri 05:35:08 PM 34.4047 -89.1489 312° West 447 514 32,000  Level Memphis Center
Fri 05:36:08 PM 34.4892 -89.2636 312° West 457 526 32,000  Level Memphis Center
Fri 05:37:08 PM 34.5758 -89.3886 310° West 467 537 32,000  Level Memphis Center
Fri 05:38:08 PM 34.6664 -89.5061 313° West 472 543 32,000  Level Memphis Center
Fri 05:39:08 PM 34.7611 -89.6392 311° West 478 550 32,000  Level Memphis Center
Fri 05:40:08 PM 34.8453 -89.7522 312° West 483 556 32,000  Level Memphis Center
Fri 05:41:08 PM 34.9439 -89.8883 311° West 502 578 32,000  Level Memphis Center
Fri 05:42:08 PM 35.0361 -90.0072 313° West 507 583 32,000  Level Memphis Center
Fri 05:43:09 PM 35.1239 -90.1336 310° West 492 566 32,000  Level Memphis Center
Fri 05:44:08 PM 35.2181 -90.2581 313° West 492 566 32,000  Level Memphis Center
Fri 05:45:08 PM 35.3078 -90.3850 311° West 492 566 32,000  Level Memphis Center
Fri 05:46:08 PM 35.4014 -90.5150 311° West 501 577 32,000  Level Memphis Center
Fri 05:47:08 PM 35.4994 -90.6553 311° West 501 577 32,000  Level Memphis Center
Fri 05:48:09 PM 35.5928 -90.7808 312° West 501 577 32,000  Level Memphis Center
Fri 05:49:09 PM 35.6842 -90.9117 311° West 501 577 32,000  Level Memphis Center
Fri 05:50:08 PM 35.7731 -91.0403 310° West 496 571 32,000 -50 Level Memphis Center
Fri 05:51:09 PM 35.8619 -91.1717 310° West 496 571 31,900 -550 Descending Memphis Center
Fri 05:52:08 PM 35.9592 -91.2981 314° West 505 581 30,900 -1,008 Descending Memphis Center
Fri 05:53:08 PM 36.0456 -91.4275 310° West 505 581 29,900 -500 Descending Memphis Center
Fri 05:54:08 PM 36.1319 -91.5597 309° West 500 575 29,900  Level Memphis Center
Fri 05:55:08 PM 36.1992 -91.7097 299° West 494 568 29,900 -500 Level Memphis Center
Fri 05:56:08 PM 36.2625 -91.8422 301° West 500 575 28,900 -1,140 Descending Memphis Center
Fri 05:57:09 PM 36.3333 -91.9956 300° West 505 581 27,600 -1,350 Descending Memphis Center
Fri 05:58:08 PM 36.4044 -92.1439 301° West 505 581 26,200 -1,613 Descending Memphis Center
Fri 05:59:08 PM 36.4753 -92.2900 301° West 505 581 24,400 -1,587 Descending Memphis Center
Fri 06:00:09 PM 36.5458 -92.4389 301° West 505 581 23,000 -621 Descending Memphis Center
Fri 06:02:02 PM 36.7158 -92.6814 311° West 476 548 22,600 -784 Descending Kansas City Center
Fri 06:03:05 PM 36.8028 -92.8053 311° West 474 545 20,700 -1,728 Descending Kansas City Center
Fri 06:04:07 PM 36.8739 -92.9306 305° West 447 514 19,000 -1,984 Descending Kansas City Center
Fri 06:05:09 PM 36.9275 -93.0444 301° West 401 461 16,600 -2,323 Descending Kansas City Center
Fri 06:06:11 PM 36.9533 -93.1614 285° West 354 407 14,200 -1,984 Descending Kansas City Center
Fri 06:07:13 PM 36.9744 -93.2686 284° West 332 382 12,500 -1,935 Descending Kansas City Center
Fri 06:08:15 PM 36.9786 -93.3603 273° West 294 338 10,200 -2,468 Descending Kansas City Center
Fri 06:09:17 PM 36.9350 -93.4383 235° Southwest 263 303 7,400 -2,613 Descending Kansas City Center
Fri 06:10:19 PM 36.9889 -93.4642 339° North 226 260 4,800 -1,694 Descending Kansas City Center
Fri 06:11:21 PM 37.0450 -93.4633 North 224 258 3,900 -871 Descending Kansas City Center
Fri 06:13:00 PM 37.2258 -93.3865 19° North  Level FlightAware Approximate
Fri 06:20:00 PM 37.2333 -93.3833 North  Level FlightAware Approximate
Fri 06:21:00 PM 37.2457 -93.3886 North  Level Estimated

Login

Don't have an account? Register now (free) for customized features, flight alerts, and more!